createdAt,value
2023-10-10T00:00:59.682Z,99.90
2023-10-10T00:03:32.427Z,99.90
2023-10-10T00:06:07.737Z,99.90
2023-10-10T00:08:41.842Z,99.90
2023-10-10T00:11:16.329Z,99.90
2023-10-10T00:13:48.063Z,99.90
2023-10-10T00:16:27.734Z,99.90
2023-10-10T00:19:00.528Z,99.90
2023-10-10T00:21:31.398Z,99.90
2023-10-10T00:24:01.534Z,99.90
2023-10-10T00:26:32.690Z,99.90
2023-10-10T00:29:07.660Z,99.90
2023-10-10T00:31:57.824Z,99.90
2023-10-10T00:34:35.495Z,99.90
2023-10-10T00:37:09.894Z,99.90
2023-10-10T00:39:40.686Z,99.90
2023-10-10T00:42:21.405Z,99.90
2023-10-10T00:44:54.827Z,99.90
2023-10-10T00:47:32.893Z,99.90
2023-10-10T00:50:03.680Z,99.90
2023-10-10T00:52:38.173Z,99.90
2023-10-10T00:55:10.571Z,99.90
2023-10-10T00:57:41.817Z,99.90
2023-10-10T01:00:16.504Z,99.90
2023-10-10T01:02:57.973Z,99.90
2023-10-10T01:05:40.973Z,99.90
2023-10-10T01:08:11.662Z,99.90
2023-10-10T01:10:45.096Z,99.90
2023-10-10T01:13:15.163Z,99.90
2023-10-10T01:15:58.249Z,99.90
2023-10-10T01:18:32.835Z,99.90
2023-10-10T01:21:05.649Z,99.90
2023-10-10T01:23:35.664Z,99.90
2023-10-10T01:26:10.830Z,99.90
2023-10-10T01:28:43.003Z,99.90
2023-10-10T01:31:19.405Z,99.90
2023-10-10T01:33:51.334Z,99.90
2023-10-10T01:36:24.858Z,99.90
2023-10-10T01:39:24.823Z,99.90
2023-10-10T01:41:54.831Z,99.90
2023-10-10T01:44:29.255Z,99.90
2023-10-10T01:47:00.506Z,99.90
2023-10-10T01:49:31.871Z,99.90
2023-10-10T01:52:05.236Z,99.90
2023-10-10T01:54:41.977Z,99.90
2023-10-10T01:57:22.941Z,99.90
2023-10-10T01:59:59.265Z,99.90
2023-10-10T02:02:31.992Z,99.90
2023-10-10T02:05:05.039Z,99.90
2023-10-10T02:07:40.804Z,99.90
2023-10-10T02:10:15.319Z,99.90
2023-10-10T02:12:47.724Z,99.90
2023-10-10T02:15:20.541Z,99.90
2023-10-10T02:17:53.154Z,99.90
2023-10-10T02:20:36.348Z,99.90
2023-10-10T02:23:25.837Z,99.90
2023-10-10T02:25:57.654Z,99.90
2023-10-10T02:28:44.257Z,99.90
2023-10-10T02:31:17.268Z,99.90
2023-10-10T02:34:03.780Z,99.90
2023-10-10T02:36:36.432Z,99.90
2023-10-10T02:39:27.479Z,99.90
2023-10-10T02:42:01.285Z,99.90
2023-10-10T02:44:40.281Z,99.90
2023-10-10T02:47:13.576Z,99.90
2023-10-10T02:49:44.007Z,99.90
2023-10-10T02:52:15.954Z,99.90
2023-10-10T02:54:55.458Z,99.90
2023-10-10T02:57:32.667Z,99.90
2023-10-10T03:00:18.966Z,99.90
2023-10-10T03:02:55.491Z,99.90
2023-10-10T03:05:45.536Z,99.90
2023-10-10T03:08:19.790Z,99.90
2023-10-10T03:11:02.131Z,99.90
2023-10-10T03:13:37.613Z,99.90
2023-10-10T03:16:42.866Z,99.90
2023-10-10T03:19:26.194Z,99.90
2023-10-10T03:22:17.110Z,99.90
2023-10-10T03:25:08.570Z,99.90
2023-10-10T03:27:56.444Z,99.90
2023-10-10T03:30:51.507Z,99.90
2023-10-10T03:33:37.820Z,99.90
2023-10-10T03:36:15.004Z,99.90
2023-10-10T03:39:09.589Z,99.90
2023-10-10T03:41:57.479Z,99.90
2023-10-10T03:44:43.593Z,99.90
2023-10-10T03:47:34.629Z,99.90
2023-10-10T03:50:17.245Z,99.90
2023-10-10T03:52:59.906Z,99.90
2023-10-10T03:55:42.362Z,99.90
2023-10-10T03:58:24.815Z,99.90
2023-10-10T04:01:13.568Z,99.90
2023-10-10T04:03:56.535Z,99.90
2023-10-10T04:06:39.259Z,99.90
2023-10-10T04:09:21.751Z,99.90
2023-10-10T04:12:04.230Z,99.90
2023-10-10T04:14:46.728Z,99.90
2023-10-10T04:17:32.361Z,99.90
2023-10-10T04:20:14.898Z,99.90
2023-10-10T04:23:16.220Z,99.90
2023-10-10T04:26:30.266Z,99.90
2023-10-10T04:29:17.920Z,99.90
2023-10-10T04:32:00.638Z,99.90
2023-10-10T04:34:46.831Z,99.90
2023-10-10T04:37:29.280Z,99.90
2023-10-10T04:40:12.150Z,99.90
2023-10-10T04:42:54.644Z,99.90
2023-10-10T04:45:48.817Z,99.90
2023-10-10T04:48:31.361Z,99.90
2023-10-10T04:51:16.481Z,99.90
2023-10-10T04:53:59.276Z,99.90
2023-10-10T04:56:41.821Z,99.90
2023-10-10T04:59:24.684Z,99.90
2023-10-10T05:02:07.194Z,99.90
2023-10-10T05:04:49.866Z,99.90
2023-10-10T05:07:34.932Z,99.90
2023-10-10T05:10:17.709Z,99.90
2023-10-10T05:13:00.613Z,99.90
2023-10-10T05:15:49.422Z,99.90
2023-10-10T05:18:32.263Z,99.90
2023-10-10T05:21:15.121Z,99.90
2023-10-10T05:23:51.833Z,99.90
2023-10-10T05:26:23.005Z,99.90
2023-10-10T05:28:53.049Z,99.90
2023-10-10T05:31:23.609Z,99.90
2023-10-10T05:33:54.552Z,99.90
2023-10-10T05:36:26.396Z,99.90
2023-10-10T05:38:58.969Z,99.90
2023-10-10T05:41:29.395Z,99.90
2023-10-10T05:44:00.700Z,99.90
2023-10-10T05:46:32.153Z,99.90
2023-10-10T05:49:02.116Z,99.90
2023-10-10T05:51:32.474Z,99.90
2023-10-10T05:54:05.136Z,99.90
2023-10-10T05:56:36.436Z,99.90
2023-10-10T05:59:07.827Z,99.90
2023-10-10T06:01:39.035Z,99.90
2023-10-10T06:04:09.887Z,99.90
2023-10-10T06:06:41.878Z,99.90
2023-10-10T06:09:20.545Z,99.90
2023-10-10T06:11:51.158Z,99.90
2023-10-10T06:14:23.233Z,99.90
2023-10-10T06:16:53.865Z,99.90
2023-10-10T06:19:25.298Z,99.90
2023-10-10T06:22:01.367Z,99.90
2023-10-10T06:24:35.429Z,99.90
2023-10-10T06:27:05.443Z,99.90
2023-10-10T06:29:35.924Z,99.90
2023-10-10T06:32:12.118Z,99.90
2023-10-10T06:34:42.244Z,99.90
2023-10-10T06:37:12.239Z,99.90
2023-10-10T06:39:57.764Z,99.90
2023-10-10T06:42:31.649Z,99.90
2023-10-10T06:45:09.391Z,99.90
2023-10-10T06:47:41.157Z,99.90
2023-10-10T06:50:13.732Z,99.90
2023-10-10T06:52:45.272Z,99.90
2023-10-10T06:55:23.351Z,99.90
2023-10-10T06:58:03.064Z,99.90
2023-10-10T07:00:44.048Z,99.90
2023-10-10T07:03:19.774Z,99.90
2023-10-10T07:05:50.787Z,99.90
2023-10-10T07:08:26.534Z,99.90
2023-10-10T07:10:59.448Z,99.90
2023-10-10T07:13:32.306Z,99.90
2023-10-10T07:16:03.397Z,99.90
2023-10-10T07:18:33.761Z,99.90
2023-10-10T07:21:10.020Z,99.90
2023-10-10T07:24:01.133Z,99.90
2023-10-10T07:26:42.619Z,99.90
2023-10-10T07:29:26.191Z,99.90
2023-10-10T07:32:06.380Z,99.90
2023-10-10T07:34:42.825Z,99.90
2023-10-10T07:37:16.011Z,99.90
2023-10-10T07:39:58.831Z,99.90
2023-10-10T07:42:32.297Z,99.90
2023-10-10T07:45:04.577Z,99.90
2023-10-10T07:47:56.896Z,99.90
2023-10-10T07:50:28.134Z,99.90
2023-10-10T07:52:58.850Z,99.90
2023-10-10T07:55:34.425Z,99.90
2023-10-10T07:58:07.672Z,99.90
2023-10-10T08:00:40.712Z,99.90
2023-10-10T08:03:20.657Z,99.90
2023-10-10T08:05:52.508Z,99.90
2023-10-10T08:08:27.500Z,99.90
2023-10-10T08:10:58.281Z,99.90
2023-10-10T08:13:30.945Z,99.90
2023-10-10T08:16:04.131Z,99.90
2023-10-10T08:18:53.907Z,99.90
2023-10-10T08:21:27.511Z,99.90
2023-10-10T08:24:00.935Z,99.90
2023-10-10T08:26:40.381Z,99.90
2023-10-10T08:29:14.470Z,99.90
2023-10-10T08:31:47.015Z,99.90
2023-10-10T08:34:17.116Z,99.90
2023-10-10T08:36:47.321Z,99.90
2023-10-10T08:39:26.734Z,99.90
2023-10-10T08:41:57.286Z,99.90
2023-10-10T08:44:33.007Z,99.90
2023-10-10T08:47:05.050Z,99.90
2023-10-10T08:49:36.251Z,99.90
2023-10-10T08:52:08.371Z,99.90
2023-10-10T08:54:42.128Z,99.90
2023-10-10T08:57:14.116Z,99.90
2023-10-10T08:59:54.138Z,99.90
2023-10-10T09:02:24.608Z,99.90
2023-10-10T09:04:54.608Z,99.90
2023-10-10T09:07:28.539Z,99.90
2023-10-10T09:10:06.253Z,99.90
2023-10-10T09:12:47.757Z,99.90
2023-10-10T09:15:21.230Z,99.90
2023-10-10T09:17:56.981Z,99.90
2023-10-10T09:20:30.076Z,99.90
2023-10-10T09:23:06.031Z,99.90
2023-10-10T09:25:43.306Z,99.90
2023-10-10T09:28:17.282Z,99.90
2023-10-10T09:31:01.000Z,99.90
2023-10-10T09:33:32.143Z,99.90
2023-10-10T09:36:09.965Z,99.90
2023-10-10T09:38:46.905Z,99.90
2023-10-10T09:41:29.173Z,99.90
2023-10-10T09:44:21.154Z,99.90
2023-10-10T09:47:14.783Z,99.90
2023-10-10T09:49:45.380Z,99.90
2023-10-10T09:52:30.105Z,99.90
2023-10-10T09:55:08.902Z,99.90
2023-10-10T09:57:44.228Z,99.90
2023-10-10T10:00:27.394Z,99.90
2023-10-10T10:03:22.443Z,99.90
2023-10-10T10:05:59.814Z,87.50
2023-10-10T10:08:39.575Z,1.00
2023-10-10T10:11:14.481Z,1.00
2023-10-10T10:14:09.174Z,9.50
2023-10-10T10:16:51.046Z,12.10
2023-10-10T10:19:29.958Z,1.00
2023-10-10T10:26:39.416Z,1.00
2023-10-10T10:32:46.017Z,1.00
2023-10-10T10:35:23.390Z,1.00
2023-10-10T10:38:00.562Z,1.00
2023-10-10T10:40:43.518Z,1.00
2023-10-10T10:43:15.596Z,1.00
2023-10-10T10:45:53.422Z,1.00
2023-10-10T10:48:35.611Z,1.00
2023-10-10T10:51:29.680Z,1.00
2023-10-10T10:54:00.838Z,1.00
2023-10-10T10:56:48.457Z,1.00
2023-10-10T10:59:21.479Z,1.00
2023-10-10T11:01:56.771Z,1.00
2023-10-10T11:04:44.855Z,1.00
2023-10-10T11:07:30.052Z,99.90
2023-10-10T11:10:11.011Z,99.90
2023-10-10T11:12:41.740Z,99.90
2023-10-10T11:15:16.328Z,99.90
2023-10-10T11:18:09.555Z,99.90
2023-10-10T11:20:54.771Z,99.90
2023-10-10T11:23:43.038Z,99.90
2023-10-10T11:26:15.320Z,99.90
2023-10-10T11:28:49.772Z,99.90
2023-10-10T11:31:25.269Z,99.90
2023-10-10T11:34:12.053Z,99.90
2023-10-10T11:36:42.217Z,99.90
2023-10-10T11:39:35.513Z,99.90
2023-10-10T11:42:08.884Z,99.90
2023-10-10T11:44:38.904Z,99.90
2023-10-10T11:47:22.925Z,99.90
2023-10-10T11:50:02.224Z,99.90
2023-10-10T11:52:33.993Z,99.90
2023-10-10T11:55:09.317Z,99.90
2023-10-10T11:57:39.300Z,95.10
2023-10-10T12:00:27.128Z,99.90
2023-10-10T12:02:59.107Z,92.80
2023-10-10T12:05:48.601Z,60.90
2023-10-10T12:08:24.587Z,1.00
2023-10-10T12:11:07.973Z,1.00
2023-10-10T12:13:37.997Z,40.90
2023-10-10T12:16:12.079Z,1.00
2023-10-10T12:18:51.401Z,1.00
2023-10-10T12:21:23.564Z,1.00
2023-10-10T12:24:00.749Z,1.00
2023-10-10T12:26:40.156Z,1.00
2023-10-10T12:29:12.000Z,1.00
2023-10-10T12:31:43.354Z,1.00
2023-10-10T12:34:14.342Z,1.00
2023-10-10T12:36:45.331Z,1.00
2023-10-10T12:39:16.426Z,1.00
2023-10-10T12:41:50.078Z,1.00
2023-10-10T12:44:22.496Z,1.00
2023-10-10T12:46:56.020Z,1.00
2023-10-10T12:49:30.352Z,1.00
2023-10-10T12:52:02.626Z,1.00
2023-10-10T12:54:36.355Z,1.00
2023-10-10T12:57:17.350Z,1.00
2023-10-10T12:59:52.574Z,1.00
2023-10-10T13:02:27.920Z,1.00
2023-10-10T13:04:58.074Z,1.00
2023-10-10T13:07:36.026Z,1.00
2023-10-10T13:10:11.641Z,1.00
2023-10-10T13:12:47.089Z,1.00
2023-10-10T13:15:29.363Z,1.00
2023-10-10T13:18:19.898Z,1.00
2023-10-10T13:20:51.863Z,1.00
2023-10-10T13:23:23.420Z,1.00
2023-10-10T13:25:53.407Z,1.00
2023-10-10T13:28:26.327Z,1.00
2023-10-10T13:30:57.335Z,1.00
2023-10-10T13:33:27.948Z,1.00
2023-10-10T13:35:58.033Z,1.00
2023-10-10T13:38:28.896Z,1.00
2023-10-10T13:41:02.810Z,1.00
2023-10-10T13:43:35.807Z,1.00
2023-10-10T13:46:07.215Z,1.00
2023-10-10T13:48:38.098Z,1.00
2023-10-10T13:51:08.841Z,1.00
2023-10-10T13:53:40.792Z,1.00
2023-10-10T13:56:12.034Z,1.00
2023-10-10T13:58:48.408Z,1.00
2023-10-10T14:01:20.478Z,1.00
2023-10-10T14:03:57.899Z,1.00
2023-10-10T14:06:29.223Z,1.00
2023-10-10T14:08:59.864Z,1.00
2023-10-10T14:11:34.160Z,2.60
2023-10-10T14:14:07.566Z,14.10
2023-10-10T14:16:37.827Z,11.00
2023-10-10T14:19:08.078Z,57.30
2023-10-10T14:21:40.085Z,86.20
2023-10-10T14:24:14.789Z,78.20
2023-10-10T14:26:46.467Z,99.90
2023-10-10T14:29:20.820Z,99.90
2023-10-10T14:32:00.144Z,99.90
2023-10-10T14:34:32.283Z,99.90
2023-10-10T14:37:07.584Z,77.80
2023-10-10T14:39:46.003Z,66.00
2023-10-10T14:42:16.512Z,92.20
2023-10-10T14:44:49.313Z,84.90
2023-10-10T14:47:22.218Z,45.90
2023-10-10T14:49:57.435Z,49.70
2023-10-10T14:52:33.833Z,1.00
2023-10-10T14:55:07.274Z,3.80
2023-10-10T14:57:37.294Z,3.80
2023-10-10T15:00:19.232Z,1.00
2023-10-10T15:02:54.164Z,1.00
2023-10-10T15:05:25.913Z,1.00
2023-10-10T15:07:56.501Z,1.00
2023-10-10T15:10:28.578Z,1.00
2023-10-10T15:12:59.640Z,1.00
2023-10-10T15:15:35.862Z,1.00
2023-10-10T15:18:06.053Z,1.00
2023-10-10T15:20:36.146Z,1.00
2023-10-10T15:23:06.284Z,1.00
2023-10-10T15:25:36.870Z,1.00
2023-10-10T15:28:08.485Z,1.00
2023-10-10T15:30:42.887Z,1.00
2023-10-10T15:33:18.984Z,1.00
2023-10-10T15:35:54.093Z,1.00
2023-10-10T15:38:24.526Z,1.00
2023-10-10T15:40:54.662Z,1.00
2023-10-10T15:43:32.740Z,1.00
2023-10-10T15:46:08.312Z,1.00
2023-10-10T15:48:43.752Z,5.80
2023-10-10T15:51:16.058Z,27.80
2023-10-10T15:53:47.125Z,77.80
2023-10-10T15:56:18.601Z,79.40
2023-10-10T15:58:52.218Z,73.10
2023-10-10T16:01:29.186Z,99.40
2023-10-10T16:04:01.576Z,99.70
2023-10-10T16:06:35.110Z,99.90
2023-10-10T16:09:11.161Z,99.90
2023-10-10T16:11:42.000Z,99.90
2023-10-10T16:14:12.666Z,99.90
2023-10-10T16:16:46.831Z,99.90
2023-10-10T16:19:21.492Z,99.90
2023-10-10T16:21:51.554Z,99.90
2023-10-10T16:28:10.943Z,99.90
2023-10-10T16:33:59.395Z,99.90
2023-10-10T16:36:49.938Z,99.90
2023-10-10T16:39:31.052Z,99.90
2023-10-10T16:52:42.362Z,1.00
2023-10-10T16:55:39.994Z,1.00
2023-10-10T16:58:36.340Z,1.00
2023-10-10T17:01:43.926Z,1.00
2023-10-10T17:25:17.949Z,1.00
2023-10-10T17:35:51.822Z,1.00
2023-10-10T17:57:42.405Z,99.90
2023-10-10T18:11:17.128Z,99.90
2023-10-10T18:29:25.904Z,99.90
2023-10-10T18:58:47.561Z,99.90
2023-10-10T19:12:51.907Z,1.00
2023-10-10T19:16:22.451Z,1.00
2023-10-10T19:19:33.900Z,1.00
2023-10-10T19:23:30.410Z,1.00
2023-10-10T19:26:20.998Z,1.00
2023-10-10T19:29:28.699Z,1.00
2023-10-10T19:32:36.160Z,1.00
2023-10-10T19:48:04.212Z,1.00
2023-10-10T19:50:34.912Z,1.00
2023-10-10T19:53:07.549Z,1.00
2023-10-10T19:55:38.991Z,1.00
2023-10-10T19:58:11.258Z,1.00
2023-10-10T20:00:44.309Z,1.00
2023-10-10T20:03:19.490Z,1.00
2023-10-10T20:05:50.267Z,1.00
2023-10-10T20:08:21.555Z,1.00
2023-10-10T20:10:53.086Z,1.00
2023-10-10T20:13:24.730Z,1.00
2023-10-10T20:15:55.122Z,1.00
2023-10-10T20:18:28.046Z,1.00
2023-10-10T20:20:58.238Z,1.00
2023-10-10T20:23:28.746Z,1.00
2023-10-10T20:25:58.793Z,1.00
2023-10-10T20:28:29.505Z,1.00
2023-10-10T20:30:59.574Z,1.00
2023-10-10T20:33:34.413Z,1.00
2023-10-10T20:36:05.445Z,1.00
2023-10-10T20:38:35.965Z,1.00
2023-10-10T20:41:10.894Z,1.00
2023-10-10T20:43:43.892Z,1.00
2023-10-10T20:46:20.405Z,1.00
2023-10-10T20:48:55.128Z,1.00
2023-10-10T20:51:28.947Z,1.00
2023-10-10T20:53:59.547Z,1.00
2023-10-10T20:56:30.824Z,1.00
2023-10-10T20:59:00.899Z,1.00
2023-10-10T21:01:31.335Z,1.00
2023-10-10T21:04:05.826Z,1.00
2023-10-10T21:06:36.704Z,1.00
2023-10-10T21:09:07.472Z,1.00
2023-10-10T21:11:37.638Z,1.00
2023-10-10T21:14:11.809Z,1.00
2023-10-10T21:16:42.175Z,1.00
2023-10-10T21:19:15.770Z,1.00
2023-10-10T21:21:46.016Z,1.00
2023-10-10T21:24:16.602Z,1.00
2023-10-10T21:26:46.651Z,1.00
2023-10-10T21:29:19.884Z,1.00
2023-10-10T21:31:51.415Z,1.00
2023-10-10T21:34:24.779Z,1.00
2023-10-10T21:36:55.421Z,1.00
2023-10-10T21:39:26.307Z,1.00
2023-10-10T21:41:56.627Z,1.00
2023-10-10T21:44:28.333Z,1.00
2023-10-10T21:46:58.903Z,1.00
2023-10-10T21:49:34.526Z,1.00
2023-10-10T21:52:07.191Z,1.00
2023-10-10T21:54:37.245Z,1.00
2023-10-10T21:57:08.024Z,1.00
2023-10-10T21:59:39.085Z,1.00
2023-10-10T22:02:11.099Z,1.00
2023-10-10T22:04:44.201Z,1.00
2023-10-10T22:07:29.250Z,1.00
2023-10-10T22:10:00.555Z,1.00
2023-10-10T22:12:31.045Z,1.00
2023-10-10T22:15:01.253Z,1.00
2023-10-10T22:17:31.344Z,1.00
2023-10-10T22:20:04.432Z,1.00
2023-10-10T22:23:04.818Z,1.00
2023-10-10T22:37:08.601Z,1.00
2023-10-10T22:40:29.203Z,1.00
2023-10-10T22:50:08.285Z,1.00
2023-10-10T23:29:25.443Z,1.00
